Avioradar koristi kolačiće da bi Vam omogućio jednostavnije i ugodnije korištenje stranice. 

AVIORADAR - Hrvatski zrakoplovni portal

METAR & TAF

[Source: ADDS]
METAR
LDZA 191030Z VRB02KT CAVOK 21/12 Q1014 NOSIG =
LDZA 190525Z 1906/2006 VRB02KT 9999 SCT035 TX21/1913Z TN09/1906Z PROB30 TEMPO 1906/1907 22008KT 1500 PRFG BECMG 1920/1922 05007KT RA PROB30 TEMPO 1921/2002 VRB20KT 3000 TSRA SCT025CB PROB40 TEMPO 1922/2006 04012KT BKN008 OVC025 LDSP 191030Z 09004KT 030V130 9999 FEW027 25/17 Q1013 NOSIG =
LDSP 190525Z 1906/2006 12006KT 9999 SCT040 TX26/1912Z TN19/2004Z PROB40 TEMPO 1906/1914 -TSRA FEW030CB SCT035 PROB40 1912/1916 21008KT BECMG 1918/1920 11012KT PROB40 TEMPO 1921/2002 VRB15G30KT 3000 TSRA SCT020CB BKN035 BECMG 2000/2002 30014KT LDDU 191030Z 18007KT 150V210 9999 FEW033 25/16 Q1014 NOSIG =
LDDU 190525Z 1906/2006 10006KT 9999 SCT023 TX25/1912Z TN19/2004Z PROB40 TEMPO 1906/1913 -TSRA FEW020CB BKN023 PROB30 TEMPO 1906/1909 30015KT 4000 TSRA BKN014 FEW020CB TEMPO 1912/2006 13012KT PROB30 TEMPO 1922/2006 VRB15KT TSRA FEW030CB LDPL 191030Z 09010KT 9999 FEW015 22/17 Q1012 NOSIG =
LDPL 190525Z 1906/2006 05008KT 9999 SCT050 TX23/1913Z TN14/2004Z PROB30 TEMPO 1906/1914 -TSRA FEW040CB SCT050 TEMPO 1917/2000 10012KT TSRA FEW030CB BKN035 PROB40 TEMPO 1918/1923 26015G28KT 2000 +TSRA BKN010 SCT020CB BKN030 TEMPO 2000/2006 27008KT LDZD 191030Z 18008KT 140V240 9999 FEW027 SCT045 25/17 Q1013 TEMPO 14008KT =
LDZD 190525Z 1906/2006 09006KT 9999 SCT050 TX25/1913Z TN14/2004Z PROB30 TEMPO 1906/1915 4000 TSRA FEW040CB SCT050 BECMG 1908/1910 12008KT TEMPO 1918/2002 16012KT TSRA FEW030CB BKN040 PROB40 TEMPO 1921/2001 VRB15G30KT 2000 +TSRA SCT020CB OVC030 PROB30 TEMPO 2002/2006 30008KT LDRI 191030Z 12006KT 100V180 9999 SCT030 BKN050 22/16 Q1013 =
LDRI 190525Z 1906/2006 VRB02KT 9999 SCT040 TX22/1913Z TN15/2004Z PROB30 TEMPO 1906/1912 -TSRA FEW030CB BKN040 BECMG 1910/1912 12008KT TEMPO 1917/2000 TSRA FEW025CB BKN030 PROB40 TEMPO 1920/2000 VRB18G30KT 2000 TSRA SCT020CB OVC030 PROB30 TEMPO 2000/2006 -SHRA FEW020TCU BKN030 LDOS 191030Z VRB02KT CAVOK 23/10 Q1014 =
LDOS 190525Z 1906/2006 24006KT 9999 SCT045 TX24/1912Z TN09/1906Z BECMG 1920/1922 08008KT BECMG 2001/2003 02012KT RA PROB30 TEMPO 2003/2006 VRB15KT 4000 TSRA BKN014 SCT025CB OVC040
TAF
LDZA 190525Z 1906/2006 VRB02KT 9999 SCT035 TX21/1913Z TN09/1906Z PROB30 TEMPO 1906/1907 22008KT 1500 PRFG BECMG 1920/1922 05007KT RA PROB30 TEMPO 1921/2002 VRB20KT 3000 TSRA SCT025CB PROB40 TEMPO 1922/2006 04012KT BKN008 OVC025 =
LDSP 190525Z 1906/2006 12006KT 9999 SCT040 TX26/1912Z TN19/2004Z PROB40 TEMPO 1906/1914 -TSRA FEW030CB SCT035 PROB40 1912/1916 21008KT BECMG 1918/1920 11012KT PROB40 TEMPO 1921/2002 VRB15G30KT 3000 TSRA SCT020CB BKN035 BECMG 2000/2002 30014KT =
LDDU 190525Z 1906/2006 10006KT 9999 SCT023 TX25/1912Z TN19/2004Z PROB40 TEMPO 1906/1913 -TSRA FEW020CB BKN023 PROB30 TEMPO 1906/1909 30015KT 4000 TSRA BKN014 FEW020CB TEMPO 1912/2006 13012KT PROB30 TEMPO 1922/2006 VRB15KT TSRA FEW030CB =
LDPL 190525Z 1906/2006 05008KT 9999 SCT050 TX23/1913Z TN14/2004Z PROB30 TEMPO 1906/1914 -TSRA FEW040CB SCT050 TEMPO 1917/2000 10012KT TSRA FEW030CB BKN035 PROB40 TEMPO 1918/1923 26015G28KT 2000 +TSRA BKN010 SCT020CB BKN030 TEMPO 2000/2006 27008KT =
LDZD 190525Z 1906/2006 09006KT 9999 SCT050 TX25/1913Z TN14/2004Z PROB30 TEMPO 1906/1915 4000 TSRA FEW040CB SCT050 BECMG 1908/1910 12008KT TEMPO 1918/2002 16012KT TSRA FEW030CB BKN040 PROB40 TEMPO 1921/2001 VRB15G30KT 2000 +TSRA SCT020CB OVC030 PROB30 TEMPO 2002/2006 30008KT =
LDRI 190525Z 1906/2006 VRB02KT 9999 SCT040 TX22/1913Z TN15/2004Z PROB30 TEMPO 1906/1912 -TSRA FEW030CB BKN040 BECMG 1910/1912 12008KT TEMPO 1917/2000 TSRA FEW025CB BKN030 PROB40 TEMPO 1920/2000 VRB18G30KT 2000 TSRA SCT020CB OVC030 PROB30 TEMPO 2000/2006 -SHRA FEW020TCU BKN030 =
LDOS 190525Z 1906/2006 24006KT 9999 SCT045 TX24/1912Z TN09/1906Z BECMG 1920/1922 08008KT BECMG 2001/2003 02012KT RA PROB30 TEMPO 2003/2006 VRB15KT 4000 TSRA BKN014 SCT025CB OVC040 =
SR / SS: 04:39 / 16:58 UTC (Zagreb 2021-09-19)